Hayden, New Mexico
Current Conditions -  °F | °C
As of 1:53 PM on Tuesday 27 Jan 2015 (Local Time) from KDHT Reporting Station
Clear Clear  
Wind Chill: 71°   Ceiling: Unl
Heat Index: 71°   Visibility: 10mi
Dew Point: 30°   Wind: 16mph
Humidity: 22%   Direction: 230°SW
Pressure: 30.15"   Gusts: NA
Location:  35.8947°N, 103.215°W
Report Text: KDHT 272053Z AUTO 23014KT 10SM CLR 22/M01 A3015 RMK AO2 SLP181 T02171011 56027
Loading
Personal Weather Stations






























Interactive Weather Map New forecast layout! Learn more

10-Day Weather Forecast

Advertisements
Track Severe Weather on mobile